createdAt,value
2017-12-15T00:01:02.786Z,1.27
2017-12-15T00:03:30.254Z,0.50
2017-12-15T00:05:57.755Z,1.27
2017-12-15T00:08:25.240Z,0.60
2017-12-15T00:10:52.862Z,0.73
2017-12-15T00:13:20.267Z,0.70
2017-12-15T00:15:47.741Z,0.70
2017-12-15T00:18:15.195Z,0.67
2017-12-15T00:20:42.651Z,0.70
2017-12-15T00:23:10.135Z,0.80
2017-12-15T00:25:37.580Z,0.70
2017-12-15T00:28:05.039Z,0.60
2017-12-15T00:30:32.475Z,0.70
2017-12-15T00:32:59.931Z,0.60
2017-12-15T00:35:27.408Z,0.60
2017-12-15T00:37:54.872Z,0.70
2017-12-15T00:40:22.319Z,0.70
2017-12-15T00:42:49.775Z,0.50
2017-12-15T00:45:17.303Z,0.50
2017-12-15T00:47:44.759Z,0.80
2017-12-15T00:50:12.195Z,0.60
2017-12-15T00:52:39.651Z,0.50
2017-12-15T00:55:07.108Z,0.60
2017-12-15T00:57:34.575Z,0.60
2017-12-15T01:00:02.032Z,0.60
2017-12-15T01:02:29.492Z,0.50
2017-12-15T01:04:56.940Z,0.50
2017-12-15T01:07:24.504Z,0.60
2017-12-15T01:09:51.964Z,0.77
2017-12-15T01:12:19.673Z,1.17
2017-12-15T01:14:47.156Z,0.60
2017-12-15T01:17:14.587Z,2.83
2017-12-15T01:19:42.048Z,0.40
2017-12-15T01:22:09.499Z,1.03
2017-12-15T01:24:37.066Z,0.60
2017-12-15T01:27:04.539Z,0.50
2017-12-15T01:29:32.005Z,0.47
2017-12-15T01:31:59.450Z,0.40
2017-12-15T01:34:26.935Z,0.40
2017-12-15T01:36:54.401Z,0.50
2017-12-15T01:39:21.849Z,1.37
2017-12-15T01:41:49.303Z,0.50
2017-12-15T01:44:16.759Z,0.50
2017-12-15T01:46:44.212Z,0.50
2017-12-15T01:49:11.666Z,0.60
2017-12-15T01:51:39.428Z,1.83
2017-12-15T01:54:06.896Z,1.33
2017-12-15T01:56:34.370Z,1.17
2017-12-15T01:59:01.978Z,1.27
2017-12-15T02:01:29.465Z,1.00
2017-12-15T02:03:56.923Z,0.80
2017-12-15T02:06:24.375Z,0.80
2017-12-15T02:08:51.826Z,0.80
2017-12-15T02:11:19.265Z,3.03
2017-12-15T02:13:46.722Z,0.50
2017-12-15T02:16:14.178Z,0.50
2017-12-15T02:18:41.722Z,0.50
2017-12-15T02:21:09.173Z,1.53
2017-12-15T02:23:36.619Z,0.67
2017-12-15T02:26:04.085Z,0.50
2017-12-15T02:28:31.529Z,0.60
2017-12-15T02:30:59.020Z,0.83
2017-12-15T02:33:26.471Z,2.20
2017-12-15T02:35:53.926Z,0.80
2017-12-15T02:38:21.394Z,1.13
2017-12-15T02:40:48.877Z,0.50
2017-12-15T02:43:16.361Z,0.80
2017-12-15T02:45:43.893Z,1.03
2017-12-15T02:48:11.340Z,0.40
2017-12-15T02:50:38.812Z,1.10
2017-12-15T02:53:06.254Z,0.40
2017-12-15T02:55:33.911Z,0.60
2017-12-15T02:58:01.361Z,0.40
2017-12-15T03:00:28.808Z,0.40
2017-12-15T03:02:57.173Z,0.37
2017-12-15T03:05:24.616Z,0.40
2017-12-15T03:07:52.094Z,0.40
2017-12-15T03:10:19.535Z,0.40
2017-12-15T03:12:46.983Z,0.40
2017-12-15T03:15:14.568Z,0.50
2017-12-15T03:17:42.021Z,0.70
2017-12-15T03:20:09.476Z,2.77
2017-12-15T03:22:36.923Z,1.03
2017-12-15T03:25:04.379Z,0.50
2017-12-15T03:27:31.834Z,0.43
2017-12-15T03:29:59.332Z,0.60
2017-12-15T03:32:26.789Z,0.50
2017-12-15T03:34:54.232Z,0.40
2017-12-15T03:37:21.707Z,0.40
2017-12-15T03:39:49.168Z,0.30
2017-12-15T03:42:16.663Z,0.40
2017-12-15T03:44:44.121Z,0.60
2017-12-15T03:47:11.580Z,0.63
2017-12-15T03:49:39.043Z,0.40
2017-12-15T03:52:06.525Z,0.37
2017-12-15T03:54:34.080Z,0.40
2017-12-15T03:57:01.555Z,0.30
2017-12-15T03:59:29.017Z,0.40
2017-12-15T04:01:56.504Z,0.30
2017-12-15T04:04:23.955Z,0.50
2017-12-15T04:06:51.440Z,0.40
2017-12-15T04:09:18.895Z,0.50
2017-12-15T04:11:46.363Z,0.50
2017-12-15T04:14:13.844Z,0.40
2017-12-15T04:16:41.293Z,0.50
2017-12-15T04:19:08.792Z,0.40
2017-12-15T04:21:36.254Z,1.33
2017-12-15T04:24:03.696Z,0.40
2017-12-15T04:26:31.168Z,0.40
2017-12-15T04:28:58.623Z,1.60
2017-12-15T04:31:26.121Z,1.33
2017-12-15T04:33:53.588Z,0.50
2017-12-15T04:36:21.051Z,0.40
2017-12-15T04:38:48.507Z,4.43
2017-12-15T04:41:15.959Z,0.50
2017-12-15T04:43:43.415Z,0.40
2017-12-15T04:46:10.867Z,0.90
2017-12-15T04:48:38.343Z,1.90
2017-12-15T04:51:05.787Z,0.50
2017-12-15T04:53:33.245Z,1.87
2017-12-15T04:56:00.708Z,0.50
2017-12-15T04:58:28.158Z,1.00
2017-12-15T05:00:55.613Z,1.03
2017-12-15T05:03:23.067Z,0.50
2017-12-15T05:05:50.614Z,0.83
2017-12-15T05:08:18.085Z,0.40
2017-12-15T05:10:45.563Z,0.50
2017-12-15T05:13:13.027Z,0.97
2017-12-15T05:15:40.495Z,0.63
2017-12-15T05:18:07.969Z,0.43
2017-12-15T05:20:35.415Z,0.53
2017-12-15T05:23:02.883Z,0.60
2017-12-15T05:25:30.327Z,1.27
2017-12-15T05:27:57.790Z,0.60
2017-12-15T05:30:25.239Z,1.93
2017-12-15T05:32:52.733Z,0.70
2017-12-15T05:35:20.171Z,6.13
2017-12-15T05:37:47.638Z,0.50
2017-12-15T05:40:15.080Z,4.63
2017-12-15T05:42:42.519Z,0.70
2017-12-15T05:45:09.976Z,0.50
2017-12-15T05:47:37.431Z,1.03
2017-12-15T05:50:04.887Z,0.80
2017-12-15T05:52:32.335Z,0.40
2017-12-15T05:54:59.819Z,0.63
2017-12-15T05:57:27.266Z,1.20
2017-12-15T05:59:54.712Z,0.97
2017-12-15T06:02:22.168Z,1.03
2017-12-15T06:04:49.612Z,1.57
2017-12-15T06:07:17.083Z,4.70
2017-12-15T06:09:44.535Z,0.53
2017-12-15T06:12:11.991Z,1.60
2017-12-15T06:14:39.478Z,0.60
2017-12-15T06:17:06.947Z,0.67
2017-12-15T06:19:34.391Z,0.60
2017-12-15T06:22:01.855Z,0.50
2017-12-15T06:24:29.306Z,2.20
2017-12-15T06:26:56.798Z,0.60
2017-12-15T06:29:24.824Z,0.60
2017-12-15T06:31:52.283Z,0.70
2017-12-15T06:34:19.741Z,1.13
2017-12-15T06:36:47.190Z,0.70
2017-12-15T06:39:14.659Z,0.93
2017-12-15T06:41:42.102Z,0.50
2017-12-15T06:44:09.574Z,0.60
2017-12-15T06:46:37.035Z,0.40
2017-12-15T06:49:04.535Z,0.80
2017-12-15T06:51:31.983Z,0.73
2017-12-15T06:53:59.459Z,0.83
2017-12-15T06:56:26.926Z,4.47
2017-12-15T06:58:54.373Z,0.70
2017-12-15T07:01:21.835Z,0.57
2017-12-15T07:03:49.271Z,0.60
2017-12-15T07:06:16.763Z,0.60
2017-12-15T07:08:44.211Z,0.77
2017-12-15T07:11:11.668Z,1.37
2017-12-15T07:13:39.175Z,2.10
2017-12-15T07:16:06.629Z,1.93
2017-12-15T07:18:34.098Z,1.77
2017-12-15T07:21:01.568Z,0.50
2017-12-15T07:23:29.020Z,0.70
2017-12-15T07:25:56.480Z,0.80
2017-12-15T07:28:23.932Z,1.07
2017-12-15T07:30:51.368Z,1.97
2017-12-15T07:33:18.971Z,2.80
2017-12-15T07:35:46.411Z,0.80
2017-12-15T07:38:13.869Z,5.30
2017-12-15T07:40:41.355Z,2.20
2017-12-15T07:43:08.803Z,0.77
2017-12-15T07:45:36.271Z,1.60
2017-12-15T07:48:03.732Z,0.80
2017-12-15T07:50:31.187Z,2.83
2017-12-15T07:52:58.674Z,0.70
2017-12-15T07:55:26.128Z,0.93
2017-12-15T07:57:53.589Z,1.07
2017-12-15T08:00:21.079Z,2.20
2017-12-15T08:02:48.528Z,0.97
2017-12-15T08:05:15.966Z,2.70
2017-12-15T08:07:43.451Z,2.93
2017-12-15T08:10:10.900Z,1.83
2017-12-15T08:12:38.348Z,0.70
2017-12-15T08:15:05.845Z,1.93
2017-12-15T08:17:33.290Z,0.60
2017-12-15T08:20:00.735Z,1.00
2017-12-15T08:22:28.237Z,0.70
2017-12-15T08:24:55.688Z,1.13
2017-12-15T08:27:23.349Z,0.70
2017-12-15T08:29:50.785Z,0.73
2017-12-15T08:32:18.224Z,1.23
2017-12-15T08:34:45.686Z,2.93
2017-12-15T08:37:13.160Z,0.93
2017-12-15T08:39:40.656Z,0.83
2017-12-15T08:42:08.098Z,5.80
2017-12-15T08:44:35.539Z,1.10
2017-12-15T08:47:03.040Z,1.17
2017-12-15T08:49:30.479Z,0.70
2017-12-15T08:51:57.915Z,1.13
2017-12-15T08:54:25.378Z,1.53
2017-12-15T08:56:52.860Z,2.67
2017-12-15T08:59:20.305Z,1.83
2017-12-15T09:01:47.748Z,1.93
2017-12-15T09:04:20.972Z,0.60
2017-12-15T09:06:48.438Z,1.37
2017-12-15T09:09:15.896Z,1.23
2017-12-15T09:11:43.398Z,2.23
2017-12-15T09:14:10.845Z,0.73
2017-12-15T09:16:38.300Z,0.57
2017-12-15T09:19:05.783Z,1.07
2017-12-15T09:21:33.239Z,1.20
2017-12-15T09:24:00.679Z,2.83
2017-12-15T09:26:28.159Z,0.90
2017-12-15T09:28:55.622Z,1.07
2017-12-15T09:31:23.072Z,0.90
2017-12-15T09:33:50.527Z,2.30
2017-12-15T09:36:17.990Z,2.60
2017-12-15T09:38:45.485Z,1.13
2017-12-15T09:41:12.923Z,0.93
2017-12-15T09:43:40.375Z,0.80
2017-12-15T09:46:07.836Z,1.67
2017-12-15T09:48:35.279Z,0.73
2017-12-15T09:51:02.763Z,1.63
2017-12-15T09:53:30.218Z,1.10
2017-12-15T09:55:57.657Z,0.70
2017-12-15T09:58:25.135Z,1.13
2017-12-15T10:00:52.575Z,1.23
2017-12-15T10:03:20.043Z,1.73
2017-12-15T10:05:47.492Z,7.43
2017-12-15T10:08:14.928Z,2.07
2017-12-15T10:10:42.404Z,1.57
2017-12-15T10:13:09.860Z,2.93
2017-12-15T10:15:37.308Z,1.00
2017-12-15T10:18:04.767Z,1.27
2017-12-15T10:20:32.215Z,1.83
2017-12-15T10:22:59.673Z,2.30
2017-12-15T10:25:27.118Z,1.03
2017-12-15T10:27:54.568Z,1.50
2017-12-15T10:30:22.015Z,0.80
2017-12-15T10:32:49.500Z,2.40
2017-12-15T10:35:16.943Z,0.93
2017-12-15T10:37:44.411Z,0.90
2017-12-15T10:40:11.896Z,3.10
2017-12-15T10:42:39.360Z,3.87
2017-12-15T10:45:06.812Z,2.33
2017-12-15T10:47:34.306Z,0.90
2017-12-15T10:50:01.747Z,4.90
2017-12-15T10:52:29.198Z,6.27
2017-12-15T10:54:56.696Z,2.00
2017-12-15T10:57:24.140Z,1.40
2017-12-15T10:59:51.606Z,3.63
2017-12-15T11:02:19.099Z,3.93
2017-12-15T11:04:46.656Z,1.47
2017-12-15T11:07:14.111Z,1.10
2017-12-15T11:09:41.567Z,1.90
2017-12-15T11:12:09.104Z,0.50
2017-12-15T11:14:36.539Z,1.17
2017-12-15T11:17:03.994Z,1.50
2017-12-15T11:19:31.460Z,2.47
2017-12-15T11:21:58.912Z,1.93
2017-12-15T11:24:26.379Z,4.30
2017-12-15T11:26:53.815Z,5.67
2017-12-15T11:29:21.295Z,5.13
2017-12-15T11:31:48.736Z,2.07
2017-12-15T11:34:16.217Z,1.40
2017-12-15T11:36:43.663Z,2.90
2017-12-15T11:39:11.114Z,3.33
2017-12-15T11:41:38.584Z,6.00
2017-12-15T11:44:06.054Z,2.50
2017-12-15T11:46:33.535Z,0.70
2017-12-15T11:49:00.971Z,2.40
2017-12-15T11:51:28.519Z,2.30
2017-12-15T11:53:55.982Z,0.90
2017-12-15T11:56:23.424Z,1.00
2017-12-15T11:58:50.923Z,6.70
2017-12-15T12:01:18.363Z,0.70
2017-12-15T12:03:45.827Z,2.20
2017-12-15T12:06:13.358Z,2.97
2017-12-15T12:08:40.806Z,9.43
2017-12-15T12:11:08.270Z,0.80
2017-12-15T12:13:35.767Z,3.53
2017-12-15T12:16:03.218Z,4.83
2017-12-15T12:18:30.665Z,5.27
2017-12-15T12:20:58.175Z,6.13
2017-12-15T12:23:25.624Z,3.47
2017-12-15T12:25:53.075Z,0.80
2017-12-15T12:28:20.543Z,0.73
2017-12-15T12:30:47.992Z,2.23
2017-12-15T12:33:15.471Z,1.77
2017-12-15T12:35:43.028Z,1.80
2017-12-15T12:38:10.482Z,2.60
2017-12-15T12:40:37.947Z,1.73
2017-12-15T12:43:05.424Z,0.60
2017-12-15T12:45:32.859Z,1.50
2017-12-15T12:48:00.305Z,1.07
2017-12-15T12:50:27.779Z,7.00
2017-12-15T12:52:55.222Z,0.50
2017-12-15T12:55:22.677Z,0.90
2017-12-15T12:57:50.136Z,4.33
2017-12-15T13:00:17.590Z,1.20
2017-12-15T13:02:45.047Z,2.40
2017-12-15T13:05:12.495Z,1.07
2017-12-15T13:07:39.953Z,13.03
2017-12-15T13:10:07.408Z,3.17
2017-12-15T13:12:34.880Z,1.50
2017-12-15T13:15:02.343Z,1.17
2017-12-15T13:17:29.806Z,1.30
2017-12-15T13:19:57.511Z,2.83
2017-12-15T13:22:24.960Z,2.10
2017-12-15T13:24:52.407Z,3.17
2017-12-15T13:27:20.071Z,1.20
2017-12-15T13:29:47.516Z,3.67
2017-12-15T13:32:14.970Z,0.57
2017-12-15T13:34:42.452Z,1.50
2017-12-15T13:37:09.924Z,0.60
2017-12-15T13:39:37.386Z,5.57
2017-12-15T13:42:04.891Z,6.50
2017-12-15T13:44:32.347Z,1.77
2017-12-15T13:46:59.783Z,0.90
2017-12-15T13:49:27.271Z,0.70
2017-12-15T13:51:54.722Z,2.00
2017-12-15T13:54:22.170Z,1.10
2017-12-15T13:56:49.623Z,1.53
2017-12-15T13:59:17.063Z,1.93
2017-12-15T14:01:44.555Z,0.73
2017-12-15T14:04:11.994Z,0.73
2017-12-15T14:06:39.435Z,4.57
2017-12-15T14:09:06.935Z,2.73
2017-12-15T14:11:34.415Z,2.00
2017-12-15T14:14:02.563Z,1.57
2017-12-15T14:16:30.024Z,1.43
2017-12-15T14:18:57.476Z,2.20
2017-12-15T14:21:24.958Z,3.60
2017-12-15T14:23:52.417Z,1.13
2017-12-15T14:26:19.871Z,4.83
2017-12-15T14:28:47.376Z,1.37
2017-12-15T14:31:14.835Z,1.57
2017-12-15T14:33:42.290Z,6.27
2017-12-15T14:36:09.796Z,2.40
2017-12-15T14:38:37.235Z,5.00
2017-12-15T14:41:04.683Z,5.30
2017-12-15T14:43:32.155Z,4.33
2017-12-15T14:45:59.606Z,3.13
2017-12-15T14:48:27.071Z,2.17
2017-12-15T14:50:54.552Z,1.27
2017-12-15T14:53:21.995Z,5.27
2017-12-15T14:55:49.449Z,3.03
2017-12-15T14:58:16.944Z,3.40
2017-12-15T15:00:44.408Z,2.40
2017-12-15T15:03:11.863Z,1.40
2017-12-15T15:05:39.358Z,1.40
2017-12-15T15:08:06.811Z,3.70
2017-12-15T15:10:34.259Z,3.03
2017-12-15T15:13:01.752Z,0.90
2017-12-15T15:15:29.215Z,1.50
2017-12-15T15:17:56.663Z,4.30
2017-12-15T15:20:24.140Z,1.17
2017-12-15T15:22:51.608Z,2.10
2017-12-15T15:25:19.059Z,2.00
2017-12-15T15:27:46.517Z,8.03
2017-12-15T15:30:14.099Z,1.33
2017-12-15T15:32:41.782Z,3.30
2017-12-15T15:35:09.224Z,7.40
2017-12-15T15:37:36.696Z,2.40
2017-12-15T15:40:04.175Z,3.13
2017-12-15T15:42:31.620Z,1.10
2017-12-15T15:44:59.091Z,12.83
2017-12-15T15:47:26.568Z,3.87
2017-12-15T15:49:54.027Z,1.83
2017-12-15T15:52:21.534Z,1.57
2017-12-15T15:54:48.984Z,8.50
2017-12-15T15:57:16.441Z,2.80
2017-12-15T15:59:44.027Z,3.93
2017-12-15T16:02:11.479Z,3.00
2017-12-15T16:04:38.955Z,3.93
2017-12-15T16:07:06.424Z,3.13
2017-12-15T16:09:33.879Z,1.37
2017-12-15T16:12:01.335Z,4.90
2017-12-15T16:14:28.791Z,4.30
2017-12-15T16:16:56.256Z,1.73
2017-12-15T16:19:23.708Z,3.23
2017-12-15T16:21:51.184Z,2.80
2017-12-15T16:24:18.654Z,2.40
2017-12-15T16:26:46.118Z,3.13
2017-12-15T16:29:13.571Z,1.40
2017-12-15T16:31:41.048Z,5.13
2017-12-15T16:34:08.491Z,1.53
2017-12-15T16:36:35.961Z,3.87
2017-12-15T16:39:03.403Z,4.03
2017-12-15T16:41:30.858Z,6.10
2017-12-15T16:43:58.303Z,4.40
2017-12-15T16:46:25.792Z,2.20
2017-12-15T16:48:53.234Z,1.23
2017-12-15T16:51:20.702Z,1.73
2017-12-15T16:53:48.187Z,3.83
2017-12-15T16:56:15.636Z,10.73
2017-12-15T16:58:43.079Z,1.50
2017-12-15T17:01:10.531Z,2.53
2017-12-15T17:03:37.986Z,2.60
2017-12-15T17:06:05.442Z,1.80
2017-12-15T17:08:32.903Z,3.63
2017-12-15T17:11:00.408Z,2.33
2017-12-15T17:13:27.851Z,3.50
2017-12-15T17:15:55.288Z,3.77
2017-12-15T17:18:22.882Z,3.97
2017-12-15T17:20:50.359Z,4.47
2017-12-15T17:23:17.812Z,4.53
2017-12-15T17:25:45.384Z,2.10
2017-12-15T17:28:12.868Z,3.13
2017-12-15T17:30:40.381Z,7.53
2017-12-15T17:33:07.897Z,7.33
2017-12-15T17:35:35.351Z,1.63
2017-12-15T17:38:02.797Z,2.50
2017-12-15T17:40:30.296Z,2.80
2017-12-15T17:42:57.744Z,4.13
2017-12-15T17:45:25.250Z,4.40
2017-12-15T17:47:52.718Z,2.90
2017-12-15T17:50:20.174Z,1.90
2017-12-15T17:52:47.668Z,2.13
2017-12-15T17:55:15.107Z,5.60
2017-12-15T17:57:42.592Z,1.93
2017-12-15T18:00:10.159Z,2.63
2017-12-15T18:02:37.642Z,3.57
2017-12-15T18:05:05.097Z,2.40
2017-12-15T18:07:32.545Z,2.70
2017-12-15T18:10:00.010Z,8.63
2017-12-15T18:12:27.465Z,6.37
2017-12-15T18:14:54.960Z,2.50
2017-12-15T18:17:22.403Z,1.77
2017-12-15T18:19:49.835Z,6.87
2017-12-15T18:22:17.304Z,6.10
2017-12-15T18:24:44.749Z,4.53
2017-12-15T18:27:12.263Z,4.73
2017-12-15T18:29:39.751Z,9.97
2017-12-15T18:32:07.216Z,12.87
2017-12-15T18:34:34.661Z,15.00
2017-12-15T18:37:02.131Z,5.90
2017-12-15T18:39:29.571Z,4.80
2017-12-15T18:41:57.027Z,7.70
2017-12-15T18:44:24.467Z,3.30
2017-12-15T18:46:51.939Z,3.97
2017-12-15T18:49:19.468Z,6.70
2017-12-15T18:51:46.920Z,9.33
2017-12-15T18:54:14.367Z,5.57
2017-12-15T18:56:41.848Z,6.13
2017-12-15T18:59:09.298Z,7.73
2017-12-15T19:01:36.754Z,6.80
2017-12-15T19:04:04.219Z,4.70
2017-12-15T19:06:31.666Z,3.10
2017-12-15T19:08:59.123Z,5.90
2017-12-15T19:11:26.671Z,2.63
2017-12-15T19:13:54.162Z,7.37
2017-12-15T19:16:21.633Z,6.80
2017-12-15T19:18:49.096Z,19.00
2017-12-15T19:21:16.547Z,6.10
2017-12-15T19:23:44.002Z,11.67
2017-12-15T19:26:11.467Z,5.03
2017-12-15T19:28:38.951Z,5.13
2017-12-15T19:31:06.533Z,3.57
2017-12-15T19:33:34.242Z,5.30
2017-12-15T19:36:01.695Z,5.50
2017-12-15T19:38:29.149Z,5.43
2017-12-15T19:40:56.608Z,6.47
2017-12-15T19:43:24.101Z,9.77
2017-12-15T19:45:51.661Z,8.53
2017-12-15T19:48:19.080Z,9.73
2017-12-15T19:50:46.563Z,8.10
2017-12-15T19:53:14.285Z,6.70
2017-12-15T19:55:41.748Z,8.73
2017-12-15T19:58:09.187Z,10.20
2017-12-15T20:00:36.739Z,4.90
2017-12-15T20:03:04.184Z,6.20
2017-12-15T20:05:31.725Z,6.17
2017-12-15T20:07:59.197Z,4.77
2017-12-15T20:10:27.498Z,5.83
2017-12-15T20:12:55.058Z,5.87
2017-12-15T20:15:22.525Z,9.60
2017-12-15T20:17:49.981Z,17.10
2017-12-15T20:20:17.472Z,9.77
2017-12-15T20:22:44.938Z,7.33
2017-12-15T20:25:12.455Z,9.03
2017-12-15T20:27:39.904Z,12.20
2017-12-15T20:30:07.544Z,5.60
2017-12-15T20:32:35.018Z,8.83
2017-12-15T20:35:02.519Z,13.07
2017-12-15T20:37:30.072Z,9.33
2017-12-15T20:39:57.551Z,6.97
2017-12-15T20:42:25.008Z,8.93
2017-12-15T20:44:52.471Z,11.33
2017-12-15T20:47:19.931Z,4.73
2017-12-15T20:49:47.396Z,4.47
2017-12-15T20:52:14.847Z,5.30
2017-12-15T20:54:42.307Z,8.13
2017-12-15T20:57:09.786Z,6.33
2017-12-15T20:59:37.268Z,14.63
2017-12-15T21:02:04.715Z,3.97
2017-12-15T21:04:32.179Z,6.17
2017-12-15T21:06:59.636Z,4.93
2017-12-15T21:09:27.125Z,7.17
2017-12-15T21:11:54.587Z,10.43
2017-12-15T21:14:22.117Z,6.87
2017-12-15T21:16:49.592Z,3.77
2017-12-15T21:19:17.121Z,6.07
2017-12-15T21:21:44.627Z,4.97
2017-12-15T21:24:12.132Z,8.00
2017-12-15T21:26:39.608Z,9.23
2017-12-15T21:29:07.064Z,5.50
2017-12-15T21:31:34.523Z,2.90
2017-12-15T21:34:01.968Z,4.07
2017-12-15T21:36:29.451Z,8.13
2017-12-15T21:38:57.012Z,4.87
2017-12-15T21:41:24.495Z,4.23
2017-12-15T21:43:51.949Z,3.67
2017-12-15T21:46:19.402Z,7.30
2017-12-15T21:48:46.849Z,5.87
2017-12-15T21:51:14.367Z,5.70
2017-12-15T21:53:42.315Z,3.93
2017-12-15T21:56:09.785Z,4.93
2017-12-15T21:58:37.269Z,5.03
2017-12-15T22:01:04.757Z,8.03
2017-12-15T22:03:32.226Z,8.57
2017-12-15T22:05:59.757Z,6.23
2017-12-15T22:08:27.252Z,3.87
2017-12-15T22:10:54.707Z,7.13
2017-12-15T22:13:22.163Z,7.57
2017-12-15T22:15:49.609Z,4.27
2017-12-15T22:18:17.080Z,4.97
2017-12-15T22:20:44.542Z,5.43
2017-12-15T22:23:12.019Z,7.40
2017-12-15T22:25:39.530Z,7.30
2017-12-15T22:28:06.980Z,5.10
2017-12-15T22:30:34.431Z,3.37
2017-12-15T22:33:01.893Z,3.87
2017-12-15T22:35:29.342Z,6.83
2017-12-15T22:37:56.817Z,4.20
2017-12-15T22:40:24.266Z,5.37
2017-12-15T22:42:51.736Z,3.47
2017-12-15T22:45:19.192Z,6.00
2017-12-15T22:47:46.815Z,3.83
2017-12-15T22:50:14.259Z,6.83
2017-12-15T22:52:41.699Z,5.77
2017-12-15T22:55:09.235Z,4.50
2017-12-15T22:57:36.695Z,6.23
2017-12-15T23:00:04.152Z,3.67
2017-12-15T23:02:31.623Z,3.87
2017-12-15T23:04:59.056Z,4.53
2017-12-15T23:07:26.505Z,9.03
2017-12-15T23:09:54.139Z,6.30
2017-12-15T23:12:21.579Z,2.60
2017-12-15T23:14:49.027Z,3.57
2017-12-15T23:17:16.510Z,6.27
2017-12-15T23:19:43.947Z,2.40
2017-12-15T23:22:11.392Z,5.97
2017-12-15T23:24:38.886Z,12.97
2017-12-15T23:27:06.375Z,8.50
2017-12-15T23:29:33.815Z,5.60
2017-12-15T23:32:01.289Z,3.47
2017-12-15T23:34:28.762Z,2.50
2017-12-15T23:36:56.289Z,3.47
2017-12-15T23:39:23.726Z,6.83
2017-12-15T23:41:51.207Z,8.17
2017-12-15T23:44:18.659Z,3.53
2017-12-15T23:46:46.267Z,6.13
2017-12-15T23:49:13.712Z,12.33
2017-12-15T23:51:41.168Z,4.57
2017-12-15T23:54:08.659Z,4.13
2017-12-15T23:56:48.053Z,3.80
2017-12-15T23:59:15.553Z,6.90
